sensor_id;sensor_type;location;lat;lon;timestamp;P1;durP1;ratioP1;P2;durP2;ratioP2
71671;SDS011;67659;45.554;11.812;2023-05-31T00:02:05;8.70;;;4.20;;
71671;SDS011;67659;45.554;11.812;2023-05-31T00:04:32;11.25;;;4.22;;
71671;SDS011;67659;45.554;11.812;2023-05-31T00:06:58;9.13;;;4.32;;
71671;SDS011;67659;45.554;11.812;2023-05-31T00:09:25;9.00;;;4.50;;
71671;SDS011;67659;45.554;11.812;2023-05-31T00:11:51;7.73;;;4.10;;
71671;SDS011;67659;45.554;11.812;2023-05-31T00:14:17;8.55;;;3.83;;
71671;SDS011;67659;45.554;11.812;2023-05-31T00:16:43;8.00;;;4.10;;
71671;SDS011;67659;45.554;11.812;2023-05-31T00:19:08;7.77;;;4.00;;
71671;SDS011;67659;45.554;11.812;2023-05-31T00:21:35;7.22;;;4.05;;
71671;SDS011;67659;45.554;11.812;2023-05-31T00:24:00;8.32;;;3.80;;
71671;SDS011;67659;45.554;11.812;2023-05-31T00:26:26;7.60;;;3.65;;
71671;SDS011;67659;45.554;11.812;2023-05-31T00:28:52;7.10;;;3.57;;
71671;SDS011;67659;45.554;11.812;2023-05-31T00:31:18;8.90;;;3.80;;
71671;SDS011;67659;45.554;11.812;2023-05-31T00:33:44;7.60;;;3.53;;
71671;SDS011;67659;45.554;11.812;2023-05-31T00:36:09;7.00;;;3.72;;
71671;SDS011;67659;45.554;11.812;2023-05-31T00:38:35;7.15;;;3.17;;
71671;SDS011;67659;45.554;11.812;2023-05-31T00:41:01;7.43;;;3.37;;
71671;SDS011;67659;45.554;11.812;2023-05-31T00:43:27;7.38;;;3.55;;
71671;SDS011;67659;45.554;11.812;2023-05-31T00:45:53;7.40;;;3.50;;
71671;SDS011;67659;45.554;11.812;2023-05-31T00:48:19;6.63;;;3.25;;
71671;SDS011;67659;45.554;11.812;2023-05-31T00:50:47;7.10;;;3.60;;
71671;SDS011;67659;45.554;11.812;2023-05-31T00:53:14;6.30;;;3.10;;
71671;SDS011;67659;45.554;11.812;2023-05-31T00:55:40;7.20;;;3.20;;
71671;SDS011;67659;45.554;11.812;2023-05-31T00:58:06;6.93;;;3.33;;
71671;SDS011;67659;45.554;11.812;2023-05-31T01:00:32;7.57;;;3.50;;
71671;SDS011;67659;45.554;11.812;2023-05-31T01:02:57;7.88;;;3.22;;
71671;SDS011;67659;45.554;11.812;2023-05-31T01:05:27;6.43;;;3.33;;
71671;SDS011;67659;45.554;11.812;2023-05-31T01:07:53;8.23;;;3.47;;
71671;SDS011;67659;45.554;11.812;2023-05-31T01:10:19;6.22;;;3.40;;
71671;SDS011;67659;45.554;11.812;2023-05-31T01:15:33;7.27;;;3.30;;
71671;SDS011;67659;45.554;11.812;2023-05-31T01:20:50;7.53;;;3.10;;
71671;SDS011;67659;45.554;11.812;2023-05-31T01:23:33;6.50;;;2.92;;
71671;SDS011;67659;45.554;11.812;2023-05-31T01:29:00;8.73;;;3.17;;
71671;SDS011;67659;45.554;11.812;2023-05-31T01:31:30;7.47;;;3.17;;
71671;SDS011;67659;45.554;11.812;2023-05-31T01:33:59;6.32;;;2.80;;
71671;SDS011;67659;45.554;11.812;2023-05-31T01:36:25;6.07;;;3.20;;
71671;SDS011;67659;45.554;11.812;2023-05-31T01:38:51;5.73;;;3.00;;
71671;SDS011;67659;45.554;11.812;2023-05-31T01:41:17;7.78;;;2.80;;
71671;SDS011;67659;45.554;11.812;2023-05-31T01:43:44;6.63;;;2.90;;
71671;SDS011;67659;45.554;11.812;2023-05-31T01:46:12;6.07;;;2.83;;
71671;SDS011;67659;45.554;11.812;2023-05-31T01:48:40;7.37;;;3.00;;
71671;SDS011;67659;45.554;11.812;2023-05-31T01:51:08;5.65;;;2.72;;
71671;SDS011;67659;45.554;11.812;2023-05-31T01:53:35;6.05;;;2.83;;
71671;SDS011;67659;45.554;11.812;2023-05-31T01:56:02;6.20;;;2.97;;
71671;SDS011;67659;45.554;11.812;2023-05-31T01:58:29;6.03;;;2.95;;
71671;SDS011;67659;45.554;11.812;2023-05-31T02:00:57;6.33;;;2.67;;
71671;SDS011;67659;45.554;11.812;2023-05-31T02:03:24;7.65;;;3.00;;
71671;SDS011;67659;45.554;11.812;2023-05-31T02:08:25;6.80;;;2.90;;
71671;SDS011;67659;45.554;11.812;2023-05-31T02:10:52;6.30;;;2.78;;
71671;SDS011;67659;45.554;11.812;2023-05-31T02:13:19;7.30;;;2.87;;
71671;SDS011;67659;45.554;11.812;2023-05-31T02:15:45;6.70;;;3.28;;
71671;SDS011;67659;45.554;11.812;2023-05-31T02:18:11;6.05;;;2.92;;
71671;SDS011;67659;45.554;11.812;2023-05-31T02:20:41;6.40;;;2.92;;
71671;SDS011;67659;45.554;11.812;2023-05-31T02:23:09;6.65;;;2.60;;
71671;SDS011;67659;45.554;11.812;2023-05-31T02:25:35;7.73;;;3.07;;
71671;SDS011;67659;45.554;11.812;2023-05-31T02:28:00;7.65;;;2.80;;
71671;SDS011;67659;45.554;11.812;2023-05-31T02:30:27;7.33;;;2.87;;
71671;SDS011;67659;45.554;11.812;2023-05-31T02:32:53;7.25;;;3.00;;
71671;SDS011;67659;45.554;11.812;2023-05-31T02:35:19;6.18;;;3.00;;
71671;SDS011;67659;45.554;11.812;2023-05-31T02:37:45;5.90;;;3.03;;
71671;SDS011;67659;45.554;11.812;2023-05-31T02:40:13;9.90;;;3.03;;
71671;SDS011;67659;45.554;11.812;2023-05-31T02:42:40;8.32;;;3.10;;
71671;SDS011;67659;45.554;11.812;2023-05-31T02:45:07;6.20;;;2.88;;
71671;SDS011;67659;45.554;11.812;2023-05-31T02:47:35;6.55;;;3.00;;
71671;SDS011;67659;45.554;11.812;2023-05-31T02:50:03;5.70;;;2.90;;
71671;SDS011;67659;45.554;11.812;2023-05-31T02:52:30;6.55;;;3.08;;
71671;SDS011;67659;45.554;11.812;2023-05-31T02:54:56;6.43;;;3.17;;
71671;SDS011;67659;45.554;11.812;2023-05-31T02:57:21;6.13;;;2.80;;
71671;SDS011;67659;45.554;11.812;2023-05-31T02:59:48;7.28;;;2.80;;
71671;SDS011;67659;45.554;11.812;2023-05-31T03:02:14;6.35;;;2.90;;
71671;SDS011;67659;45.554;11.812;2023-05-31T03:04:40;8.63;;;3.03;;
71671;SDS011;67659;45.554;11.812;2023-05-31T03:07:09;7.05;;;3.00;;
71671;SDS011;67659;45.554;11.812;2023-05-31T03:09:35;6.53;;;2.83;;
71671;SDS011;67659;45.554;11.812;2023-05-31T03:12:01;6.63;;;2.88;;
71671;SDS011;67659;45.554;11.812;2023-05-31T03:14:27;6.33;;;3.13;;
71671;SDS011;67659;45.554;11.812;2023-05-31T03:16:53;7.25;;;2.72;;
71671;SDS011;67659;45.554;11.812;2023-05-31T03:19:20;6.30;;;2.92;;
71671;SDS011;67659;45.554;11.812;2023-05-31T03:21:46;6.87;;;3.20;;
71671;SDS011;67659;45.554;11.812;2023-05-31T03:24:11;8.48;;;3.38;;
71671;SDS011;67659;45.554;11.812;2023-05-31T03:26:37;8.40;;;3.10;;
71671;SDS011;67659;45.554;11.812;2023-05-31T03:29:03;6.27;;;3.17;;
71671;SDS011;67659;45.554;11.812;2023-05-31T03:31:29;7.15;;;3.20;;
71671;SDS011;67659;45.554;11.812;2023-05-31T03:33:55;6.87;;;3.10;;
71671;SDS011;67659;45.554;11.812;2023-05-31T03:36:21;8.98;;;3.28;;
71671;SDS011;67659;45.554;11.812;2023-05-31T03:38:47;6.65;;;3.30;;
71671;SDS011;67659;45.554;11.812;2023-05-31T03:41:12;6.50;;;3.50;;
71671;SDS011;67659;45.554;11.812;2023-05-31T03:43:38;7.82;;;3.50;;
71671;SDS011;67659;45.554;11.812;2023-05-31T03:46:04;8.27;;;3.40;;
71671;SDS011;67659;45.554;11.812;2023-05-31T03:48:30;6.93;;;3.33;;
71671;SDS011;67659;45.554;11.812;2023-05-31T03:50:56;6.70;;;3.28;;
71671;SDS011;67659;45.554;11.812;2023-05-31T03:53:22;9.18;;;3.25;;
71671;SDS011;67659;45.554;11.812;2023-05-31T03:55:48;6.88;;;3.28;;
71671;SDS011;67659;45.554;11.812;2023-05-31T03:58:14;7.82;;;3.20;;
71671;SDS011;67659;45.554;11.812;2023-05-31T04:00:40;6.60;;;3.30;;
71671;SDS011;67659;45.554;11.812;2023-05-31T04:03:06;6.88;;;3.22;;
71671;SDS011;67659;45.554;11.812;2023-05-31T04:05:32;7.07;;;3.22;;
71671;SDS011;67659;45.554;11.812;2023-05-31T04:07:58;7.60;;;3.30;;
71671;SDS011;67659;45.554;11.812;2023-05-31T04:10:26;7.90;;;3.22;;
71671;SDS011;67659;45.554;11.812;2023-05-31T04:12:52;6.88;;;3.40;;
71671;SDS011;67659;45.554;11.812;2023-05-31T04:15:18;6.60;;;3.40;;
71671;SDS011;67659;45.554;11.812;2023-05-31T04:17:44;8.07;;;3.42;;
71671;SDS011;67659;45.554;11.812;2023-05-31T04:20:11;8.60;;;3.60;;
71671;SDS011;67659;45.554;11.812;2023-05-31T04:22:37;6.93;;;3.20;;
71671;SDS011;67659;45.554;11.812;2023-05-31T04:25:03;7.50;;;3.43;;
71671;SDS011;67659;45.554;11.812;2023-05-31T04:27:29;7.60;;;3.28;;
71671;SDS011;67659;45.554;11.812;2023-05-31T04:29:57;6.70;;;3.40;;
71671;SDS011;67659;45.554;11.812;2023-05-31T04:32:36;8.00;;;3.75;;
71671;SDS011;67659;45.554;11.812;2023-05-31T04:35:03;6.65;;;3.53;;
71671;SDS011;67659;45.554;11.812;2023-05-31T04:37:40;6.83;;;3.60;;
71671;SDS011;67659;45.554;11.812;2023-05-31T04:40:06;7.15;;;3.45;;
71671;SDS011;67659;45.554;11.812;2023-05-31T04:42:34;7.72;;;3.45;;
71671;SDS011;67659;45.554;11.812;2023-05-31T04:45:01;7.13;;;3.80;;
71671;SDS011;67659;45.554;11.812;2023-05-31T04:47:32;8.57;;;3.80;;
71671;SDS011;67659;45.554;11.812;2023-05-31T04:49:59;7.20;;;3.63;;
71671;SDS011;67659;45.554;11.812;2023-05-31T04:52:25;7.07;;;3.75;;
71671;SDS011;67659;45.554;11.812;2023-05-31T04:54:54;7.75;;;3.70;;
71671;SDS011;67659;45.554;11.812;2023-05-31T04:57:25;7.43;;;3.80;;
71671;SDS011;67659;45.554;11.812;2023-05-31T04:59:52;8.90;;;3.80;;
71671;SDS011;67659;45.554;11.812;2023-05-31T05:02:19;8.17;;;4.03;;
71671;SDS011;67659;45.554;11.812;2023-05-31T05:04:46;6.85;;;3.58;;
71671;SDS011;67659;45.554;11.812;2023-05-31T05:07:13;9.70;;;4.60;;
71671;SDS011;67659;45.554;11.812;2023-05-31T05:09:40;7.25;;;4.47;;
71671;SDS011;67659;45.554;11.812;2023-05-31T05:12:06;9.00;;;4.13;;
71671;SDS011;67659;45.554;11.812;2023-05-31T05:14:32;7.95;;;4.50;;
71671;SDS011;67659;45.554;11.812;2023-05-31T05:16:59;8.02;;;3.90;;
71671;SDS011;67659;45.554;11.812;2023-05-31T05:19:25;8.00;;;4.47;;
71671;SDS011;67659;45.554;11.812;2023-05-31T05:21:51;8.03;;;4.50;;
71671;SDS011;67659;45.554;11.812;2023-05-31T05:24:17;8.45;;;4.32;;
71671;SDS011;67659;45.554;11.812;2023-05-31T05:26:43;7.53;;;4.25;;
71671;SDS011;67659;45.554;11.812;2023-05-31T05:29:09;9.70;;;4.43;;
71671;SDS011;67659;45.554;11.812;2023-05-31T05:31:35;8.77;;;4.70;;
71671;SDS011;67659;45.554;11.812;2023-05-31T05:34:01;9.43;;;4.67;;
71671;SDS011;67659;45.554;11.812;2023-05-31T05:36:27;7.72;;;4.00;;
71671;SDS011;67659;45.554;11.812;2023-05-31T05:38:53;8.48;;;4.50;;
71671;SDS011;67659;45.554;11.812;2023-05-31T05:41:20;9.23;;;4.65;;
71671;SDS011;67659;45.554;11.812;2023-05-31T05:43:46;11.70;;;4.47;;
71671;SDS011;67659;45.554;11.812;2023-05-31T05:46:12;8.18;;;4.40;;
71671;SDS011;67659;45.554;11.812;2023-05-31T05:48:38;11.67;;;3.93;;
71671;SDS011;67659;45.554;11.812;2023-05-31T05:51:04;9.90;;;4.90;;
71671;SDS011;67659;45.554;11.812;2023-05-31T05:53:31;10.38;;;4.93;;
71671;SDS011;67659;45.554;11.812;2023-05-31T05:55:56;10.38;;;4.55;;
71671;SDS011;67659;45.554;11.812;2023-05-31T05:58:22;9.52;;;4.50;;
71671;SDS011;67659;45.554;11.812;2023-05-31T06:00:48;7.40;;;4.40;;
71671;SDS011;67659;45.554;11.812;2023-05-31T06:03:15;10.10;;;4.38;;
71671;SDS011;67659;45.554;11.812;2023-05-31T06:05:41;8.32;;;4.53;;
71671;SDS011;67659;45.554;11.812;2023-05-31T06:08:08;8.57;;;4.50;;
71671;SDS011;67659;45.554;11.812;2023-05-31T06:10:36;9.60;;;4.80;;
71671;SDS011;67659;45.554;11.812;2023-05-31T06:13:02;8.85;;;4.50;;
71671;SDS011;67659;45.554;11.812;2023-05-31T06:15:29;10.68;;;4.85;;
71671;SDS011;67659;45.554;11.812;2023-05-31T06:17:54;10.27;;;4.72;;
71671;SDS011;67659;45.554;11.812;2023-05-31T06:20:21;11.77;;;4.83;;
71671;SDS011;67659;45.554;11.812;2023-05-31T06:22:47;8.53;;;4.57;;
71671;SDS011;67659;45.554;11.812;2023-05-31T06:25:14;9.13;;;4.55;;
71671;SDS011;67659;45.554;11.812;2023-05-31T06:27:41;8.30;;;4.70;;
71671;SDS011;67659;45.554;11.812;2023-05-31T06:30:07;10.68;;;5.05;;
71671;SDS011;67659;45.554;11.812;2023-05-31T06:32:35;8.68;;;4.85;;
71671;SDS011;67659;45.554;11.812;2023-05-31T06:35:01;8.13;;;4.80;;
71671;SDS011;67659;45.554;11.812;2023-05-31T06:37:29;9.23;;;4.00;;
71671;SDS011;67659;45.554;11.812;2023-05-31T06:40:02;6.97;;;3.35;;
71671;SDS011;67659;45.554;11.812;2023-05-31T06:42:30;7.95;;;4.13;;
71671;SDS011;67659;45.554;11.812;2023-05-31T06:44:56;12.07;;;4.73;;
71671;SDS011;67659;45.554;11.812;2023-05-31T06:47:22;9.48;;;4.68;;
71671;SDS011;67659;45.554;11.812;2023-05-31T06:49:48;8.85;;;4.72;;
71671;SDS011;67659;45.554;11.812;2023-05-31T06:52:14;9.90;;;4.50;;
71671;SDS011;67659;45.554;11.812;2023-05-31T06:54:40;7.57;;;4.30;;
71671;SDS011;67659;45.554;11.812;2023-05-31T06:57:09;12.87;;;4.40;;
71671;SDS011;67659;45.554;11.812;2023-05-31T06:59:35;8.70;;;4.35;;
71671;SDS011;67659;45.554;11.812;2023-05-31T07:02:00;9.75;;;4.97;;
71671;SDS011;67659;45.554;11.812;2023-05-31T07:04:27;9.25;;;4.57;;
71671;SDS011;67659;45.554;11.812;2023-05-31T07:06:53;8.23;;;4.33;;
71671;SDS011;67659;45.554;11.812;2023-05-31T07:09:19;8.02;;;4.50;;
71671;SDS011;67659;45.554;11.812;2023-05-31T07:11:45;9.98;;;4.40;;
71671;SDS011;67659;45.554;11.812;2023-05-31T07:14:11;8.27;;;4.80;;
71671;SDS011;67659;45.554;11.812;2023-05-31T07:16:37;7.53;;;4.43;;
71671;SDS011;67659;45.554;11.812;2023-05-31T07:19:03;9.65;;;4.63;;
71671;SDS011;67659;45.554;11.812;2023-05-31T07:21:29;10.88;;;5.03;;
71671;SDS011;67659;45.554;11.812;2023-05-31T07:23:55;8.85;;;4.65;;
71671;SDS011;67659;45.554;11.812;2023-05-31T07:26:21;8.87;;;4.70;;
71671;SDS011;67659;45.554;11.812;2023-05-31T07:28:48;10.13;;;4.75;;
71671;SDS011;67659;45.554;11.812;2023-05-31T07:31:14;14.85;;;5.65;;
71671;SDS011;67659;45.554;11.812;2023-05-31T07:33:42;10.75;;;5.20;;
71671;SDS011;67659;45.554;11.812;2023-05-31T07:36:08;10.60;;;5.07;;
71671;SDS011;67659;45.554;11.812;2023-05-31T07:38:35;9.07;;;5.53;;
71671;SDS011;67659;45.554;11.812;2023-05-31T07:41:01;7.60;;;4.70;;
71671;SDS011;67659;45.554;11.812;2023-05-31T07:43:27;8.38;;;4.60;;
71671;SDS011;67659;45.554;11.812;2023-05-31T07:45:55;8.07;;;4.50;;
71671;SDS011;67659;45.554;11.812;2023-05-31T07:48:22;10.38;;;4.35;;
71671;SDS011;67659;45.554;11.812;2023-05-31T07:50:49;8.13;;;4.20;;
71671;SDS011;67659;45.554;11.812;2023-05-31T07:53:15;8.70;;;4.40;;
71671;SDS011;67659;45.554;11.812;2023-05-31T07:55:41;7.65;;;3.80;;
71671;SDS011;67659;45.554;11.812;2023-05-31T07:58:08;6.78;;;3.92;;
71671;SDS011;67659;45.554;11.812;2023-05-31T08:00:36;8.07;;;4.10;;
71671;SDS011;67659;45.554;11.812;2023-05-31T08:03:05;8.80;;;3.87;;
71671;SDS011;67659;45.554;11.812;2023-05-31T08:05:31;8.35;;;4.20;;
71671;SDS011;67659;45.554;11.812;2023-05-31T08:07:58;8.00;;;4.30;;
71671;SDS011;67659;45.554;11.812;2023-05-31T08:10:28;8.43;;;4.20;;
71671;SDS011;67659;45.554;11.812;2023-05-31T08:12:55;9.35;;;4.22;;
71671;SDS011;67659;45.554;11.812;2023-05-31T08:15:21;7.90;;;4.17;;
71671;SDS011;67659;45.554;11.812;2023-05-31T08:17:47;9.57;;;4.20;;
71671;SDS011;67659;45.554;11.812;2023-05-31T08:20:13;7.45;;;3.95;;
71671;SDS011;67659;45.554;11.812;2023-05-31T08:22:41;7.13;;;3.78;;
71671;SDS011;67659;45.554;11.812;2023-05-31T08:25:08;10.00;;;4.60;;
71671;SDS011;67659;45.554;11.812;2023-05-31T08:27:34;8.75;;;4.20;;
71671;SDS011;67659;45.554;11.812;2023-05-31T08:29:59;7.45;;;4.15;;
71671;SDS011;67659;45.554;11.812;2023-05-31T08:32:25;7.37;;;4.17;;
71671;SDS011;67659;45.554;11.812;2023-05-31T08:34:51;8.27;;;4.17;;
71671;SDS011;67659;45.554;11.812;2023-05-31T08:37:17;9.10;;;4.55;;
71671;SDS011;67659;45.554;11.812;2023-05-31T08:39:45;8.68;;;4.50;;
71671;SDS011;67659;45.554;11.812;2023-05-31T08:42:12;8.50;;;4.67;;
71671;SDS011;67659;45.554;11.812;2023-05-31T08:44:42;9.27;;;4.47;;
71671;SDS011;67659;45.554;11.812;2023-05-31T08:47:19;9.35;;;4.50;;
71671;SDS011;67659;45.554;11.812;2023-05-31T08:49:50;8.15;;;4.50;;
71671;SDS011;67659;45.554;11.812;2023-05-31T08:52:19;7.90;;;4.60;;
71671;SDS011;67659;45.554;11.812;2023-05-31T08:54:47;8.63;;;4.57;;
71671;SDS011;67659;45.554;11.812;2023-05-31T08:57:14;11.13;;;4.40;;
71671;SDS011;67659;45.554;11.812;2023-05-31T08:59:42;8.10;;;4.25;;
71671;SDS011;67659;45.554;11.812;2023-05-31T09:02:09;7.70;;;4.00;;
71671;SDS011;67659;45.554;11.812;2023-05-31T09:04:38;8.85;;;4.20;;
71671;SDS011;67659;45.554;11.812;2023-05-31T09:07:06;7.63;;;4.37;;
71671;SDS011;67659;45.554;11.812;2023-05-31T09:09:32;8.43;;;4.32;;
71671;SDS011;67659;45.554;11.812;2023-05-31T09:11:58;9.35;;;4.88;;
71671;SDS011;67659;45.554;11.812;2023-05-31T09:14:25;9.50;;;4.93;;
71671;SDS011;67659;45.554;11.812;2023-05-31T09:16:51;8.15;;;4.38;;
71671;SDS011;67659;45.554;11.812;2023-05-31T09:19:18;8.73;;;4.70;;
71671;SDS011;67659;45.554;11.812;2023-05-31T09:21:44;9.27;;;4.68;;
71671;SDS011;67659;45.554;11.812;2023-05-31T09:24:11;8.05;;;4.38;;
71671;SDS011;67659;45.554;11.812;2023-05-31T09:26:46;8.90;;;4.50;;
71671;SDS011;67659;45.554;11.812;2023-05-31T09:29:15;8.98;;;4.72;;
71671;SDS011;67659;45.554;11.812;2023-05-31T09:31:43;11.00;;;5.30;;
71671;SDS011;67659;45.554;11.812;2023-05-31T09:34:25;8.27;;;4.30;;
71671;SDS011;67659;45.554;11.812;2023-05-31T09:36:55;8.20;;;4.70;;
71671;SDS011;67659;45.554;11.812;2023-05-31T09:39:23;8.63;;;4.50;;
71671;SDS011;67659;45.554;11.812;2023-05-31T09:41:50;7.65;;;4.55;;
71671;SDS011;67659;45.554;11.812;2023-05-31T09:44:16;10.03;;;4.67;;
71671;SDS011;67659;45.554;11.812;2023-05-31T09:46:44;8.20;;;4.60;;
71671;SDS011;67659;45.554;11.812;2023-05-31T09:49:12;7.88;;;4.60;;
71671;SDS011;67659;45.554;11.812;2023-05-31T09:51:38;7.22;;;4.30;;
71671;SDS011;67659;45.554;11.812;2023-05-31T09:54:13;6.90;;;4.63;;
71671;SDS011;67659;45.554;11.812;2023-05-31T09:56:42;9.10;;;4.97;;
71671;SDS011;67659;45.554;11.812;2023-05-31T09:59:09;10.02;;;4.00;;
71671;SDS011;67659;45.554;11.812;2023-05-31T10:01:36;10.40;;;4.45;;
71671;SDS011;67659;45.554;11.812;2023-05-31T10:04:02;8.98;;;4.28;;
71671;SDS011;67659;45.554;11.812;2023-05-31T10:06:29;9.13;;;4.10;;
71671;SDS011;67659;45.554;11.812;2023-05-31T10:09:03;8.20;;;3.87;;
71671;SDS011;67659;45.554;11.812;2023-05-31T10:11:35;9.32;;;4.30;;
71671;SDS011;67659;45.554;11.812;2023-05-31T10:14:03;7.13;;;3.95;;
71671;SDS011;67659;45.554;11.812;2023-05-31T10:16:49;8.85;;;4.50;;
71671;SDS011;67659;45.554;11.812;2023-05-31T10:19:21;8.15;;;3.85;;
71671;SDS011;67659;45.554;11.812;2023-05-31T10:21:49;7.27;;;3.97;;
71671;SDS011;67659;45.554;11.812;2023-05-31T10:24:24;11.05;;;4.05;;
71671;SDS011;67659;45.554;11.812;2023-05-31T10:26:59;7.88;;;3.95;;
71671;SDS011;67659;45.554;11.812;2023-05-31T10:29:33;7.95;;;4.10;;
71671;SDS011;67659;45.554;11.812;2023-05-31T10:32:13;9.23;;;4.10;;
71671;SDS011;67659;45.554;11.812;2023-05-31T10:34:45;7.67;;;4.10;;
71671;SDS011;67659;45.554;11.812;2023-05-31T10:37:12;8.18;;;4.28;;
71671;SDS011;67659;45.554;11.812;2023-05-31T10:42:25;8.85;;;4.20;;
71671;SDS011;67659;45.554;11.812;2023-05-31T10:47:39;9.80;;;4.32;;
71671;SDS011;67659;45.554;11.812;2023-05-31T10:50:25;7.07;;;4.07;;
71671;SDS011;67659;45.554;11.812;2023-05-31T10:52:51;7.28;;;4.00;;
71671;SDS011;67659;45.554;11.812;2023-05-31T10:55:33;7.60;;;4.30;;
71671;SDS011;67659;45.554;11.812;2023-05-31T10:58:06;8.90;;;4.33;;
71671;SDS011;67659;45.554;11.812;2023-05-31T11:00:48;6.97;;;4.13;;
71671;SDS011;67659;45.554;11.812;2023-05-31T11:03:24;9.05;;;4.70;;
71671;SDS011;67659;45.554;11.812;2023-05-31T11:05:58;9.50;;;4.93;;
71671;SDS011;67659;45.554;11.812;2023-05-31T11:08:28;8.88;;;4.80;;
71671;SDS011;67659;45.554;11.812;2023-05-31T11:14:02;9.27;;;4.57;;
71671;SDS011;67659;45.554;11.812;2023-05-31T11:16:31;9.02;;;4.22;;
71671;SDS011;67659;45.554;11.812;2023-05-31T11:19:02;10.60;;;4.30;;
71671;SDS011;67659;45.554;11.812;2023-05-31T11:21:48;9.02;;;4.70;;
71671;SDS011;67659;45.554;11.812;2023-05-31T11:24:27;8.03;;;4.80;;
71671;SDS011;67659;45.554;11.812;2023-05-31T11:26:56;9.43;;;4.80;;
71671;SDS011;67659;45.554;11.812;2023-05-31T11:29:24;8.65;;;4.70;;
71671;SDS011;67659;45.554;11.812;2023-05-31T11:34:27;8.18;;;4.63;;
71671;SDS011;67659;45.554;11.812;2023-05-31T11:36:58;8.63;;;4.40;;
71671;SDS011;67659;45.554;11.812;2023-05-31T11:39:29;11.50;;;4.63;;
71671;SDS011;67659;45.554;11.812;2023-05-31T11:41:56;10.90;;;4.90;;
71671;SDS011;67659;45.554;11.812;2023-05-31T11:44:25;8.80;;;5.10;;
71671;SDS011;67659;45.554;11.812;2023-05-31T11:47:00;9.25;;;4.90;;
71671;SDS011;67659;45.554;11.812;2023-05-31T11:49:30;9.33;;;4.83;;
71671;SDS011;67659;45.554;11.812;2023-05-31T11:51:57;9.10;;;4.40;;
71671;SDS011;67659;45.554;11.812;2023-05-31T11:54:27;9.63;;;4.70;;
71671;SDS011;67659;45.554;11.812;2023-05-31T11:57:01;8.73;;;4.30;;
71671;SDS011;67659;45.554;11.812;2023-05-31T11:59:31;8.30;;;4.70;;
71671;SDS011;67659;45.554;11.812;2023-05-31T12:01:57;9.10;;;4.60;;
71671;SDS011;67659;45.554;11.812;2023-05-31T12:04:28;10.73;;;4.80;;
71671;SDS011;67659;45.554;11.812;2023-05-31T12:06:56;10.85;;;4.35;;
71671;SDS011;67659;45.554;11.812;2023-05-31T12:09:23;10.48;;;5.20;;
71671;SDS011;67659;45.554;11.812;2023-05-31T12:11:49;8.80;;;4.88;;
71671;SDS011;67659;45.554;11.812;2023-05-31T12:14:15;10.53;;;5.47;;
71671;SDS011;67659;45.554;11.812;2023-05-31T12:16:41;8.85;;;5.10;;
71671;SDS011;67659;45.554;11.812;2023-05-31T12:19:12;10.27;;;4.90;;
71671;SDS011;67659;45.554;11.812;2023-05-31T12:21:38;9.50;;;5.10;;
71671;SDS011;67659;45.554;11.812;2023-05-31T12:24:10;9.80;;;4.93;;
71671;SDS011;67659;45.554;11.812;2023-05-31T12:26:37;11.38;;;5.45;;
71671;SDS011;67659;45.554;11.812;2023-05-31T12:29:03;10.30;;;5.05;;
71671;SDS011;67659;45.554;11.812;2023-05-31T12:31:29;10.18;;;5.00;;
71671;SDS011;67659;45.554;11.812;2023-05-31T12:33:59;11.45;;;5.20;;
71671;SDS011;67659;45.554;11.812;2023-05-31T12:36:40;7.70;;;4.40;;
71671;SDS011;67659;45.554;11.812;2023-05-31T12:39:14;10.32;;;5.25;;
71671;SDS011;67659;45.554;11.812;2023-05-31T12:41:45;10.50;;;4.90;;
71671;SDS011;67659;45.554;11.812;2023-05-31T12:44:13;8.20;;;5.00;;
71671;SDS011;67659;45.554;11.812;2023-05-31T12:46:44;9.77;;;5.00;;
71671;SDS011;67659;45.554;11.812;2023-05-31T12:49:18;8.87;;;5.10;;
71671;SDS011;67659;45.554;11.812;2023-05-31T12:51:48;9.40;;;4.75;;
71671;SDS011;67659;45.554;11.812;2023-05-31T12:54:24;12.10;;;5.47;;
71671;SDS011;67659;45.554;11.812;2023-05-31T12:56:50;10.88;;;4.68;;
71671;SDS011;67659;45.554;11.812;2023-05-31T12:59:16;11.17;;;5.17;;
71671;SDS011;67659;45.554;11.812;2023-05-31T13:01:42;9.90;;;4.60;;
71671;SDS011;67659;45.554;11.812;2023-05-31T13:04:10;8.50;;;4.93;;
71671;SDS011;67659;45.554;11.812;2023-05-31T13:06:38;8.27;;;4.78;;
71671;SDS011;67659;45.554;11.812;2023-05-31T13:09:05;9.60;;;4.78;;
71671;SDS011;67659;45.554;11.812;2023-05-31T13:11:35;12.63;;;5.20;;
71671;SDS011;67659;45.554;11.812;2023-05-31T13:14:03;9.75;;;4.85;;
71671;SDS011;67659;45.554;11.812;2023-05-31T13:16:31;9.18;;;4.90;;
71671;SDS011;67659;45.554;11.812;2023-05-31T13:18:58;9.38;;;4.50;;
71671;SDS011;67659;45.554;11.812;2023-05-31T13:21:24;8.75;;;4.65;;
71671;SDS011;67659;45.554;11.812;2023-05-31T13:23:51;9.73;;;5.07;;
71671;SDS011;67659;45.554;11.812;2023-05-31T13:26:18;11.25;;;4.30;;
71671;SDS011;67659;45.554;11.812;2023-05-31T13:28:44;11.68;;;4.90;;
71671;SDS011;67659;45.554;11.812;2023-05-31T13:31:10;10.60;;;4.97;;
71671;SDS011;67659;45.554;11.812;2023-05-31T13:33:36;9.80;;;4.60;;
71671;SDS011;67659;45.554;11.812;2023-05-31T13:36:03;10.10;;;4.73;;
71671;SDS011;67659;45.554;11.812;2023-05-31T13:38:29;9.98;;;4.95;;
71671;SDS011;67659;45.554;11.812;2023-05-31T13:40:55;9.07;;;4.90;;
71671;SDS011;67659;45.554;11.812;2023-05-31T13:43:21;13.57;;;5.20;;
71671;SDS011;67659;45.554;11.812;2023-05-31T13:45:48;12.38;;;5.10;;
71671;SDS011;67659;45.554;11.812;2023-05-31T13:50:43;10.68;;;4.88;;
71671;SDS011;67659;45.554;11.812;2023-05-31T13:53:10;11.52;;;5.10;;
71671;SDS011;67659;45.554;11.812;2023-05-31T13:55:39;8.23;;;4.82;;
71671;SDS011;67659;45.554;11.812;2023-05-31T13:58:05;9.55;;;4.80;;
71671;SDS011;67659;45.554;11.812;2023-05-31T14:00:31;12.33;;;4.80;;
71671;SDS011;67659;45.554;11.812;2023-05-31T14:02:58;8.93;;;5.20;;
71671;SDS011;67659;45.554;11.812;2023-05-31T14:05:24;11.02;;;5.38;;
71671;SDS011;67659;45.554;11.812;2023-05-31T14:07:53;8.73;;;5.07;;
71671;SDS011;67659;45.554;11.812;2023-05-31T14:10:19;10.45;;;5.22;;
71671;SDS011;67659;45.554;11.812;2023-05-31T14:12:45;8.63;;;4.93;;
71671;SDS011;67659;45.554;11.812;2023-05-31T14:15:15;9.27;;;4.82;;
71671;SDS011;67659;45.554;11.812;2023-05-31T14:17:41;10.50;;;5.00;;
71671;SDS011;67659;45.554;11.812;2023-05-31T14:20:07;12.23;;;4.53;;
71671;SDS011;67659;45.554;11.812;2023-05-31T14:22:34;7.85;;;4.60;;
71671;SDS011;67659;45.554;11.812;2023-05-31T14:25:00;9.77;;;4.43;;
71671;SDS011;67659;45.554;11.812;2023-05-31T14:27:26;9.15;;;4.20;;
71671;SDS011;67659;45.554;11.812;2023-05-31T14:29:52;8.13;;;4.28;;
71671;SDS011;67659;45.554;11.812;2023-05-31T14:32:19;9.55;;;5.00;;
71671;SDS011;67659;45.554;11.812;2023-05-31T14:34:51;8.57;;;4.20;;
71671;SDS011;67659;45.554;11.812;2023-05-31T14:37:17;11.57;;;4.88;;
71671;SDS011;67659;45.554;11.812;2023-05-31T14:39:43;10.20;;;4.97;;
71671;SDS011;67659;45.554;11.812;2023-05-31T14:42:09;9.57;;;5.05;;
71671;SDS011;67659;45.554;11.812;2023-05-31T14:44:35;10.60;;;5.40;;
71671;SDS011;67659;45.554;11.812;2023-05-31T14:47:01;10.88;;;4.82;;
71671;SDS011;67659;45.554;11.812;2023-05-31T14:49:28;10.32;;;5.38;;
71671;SDS011;67659;45.554;11.812;2023-05-31T14:51:53;13.48;;;4.88;;
71671;SDS011;67659;45.554;11.812;2023-05-31T14:54:22;9.87;;;4.80;;
71671;SDS011;67659;45.554;11.812;2023-05-31T14:56:48;13.48;;;4.65;;
71671;SDS011;67659;45.554;11.812;2023-05-31T14:59:15;16.77;;;5.32;;
71671;SDS011;67659;45.554;11.812;2023-05-31T15:01:41;9.70;;;4.68;;